Latest Coastal Weather Observations for Lady Elliot Island

IDQ60701

Issued at 8:21 am EST Tuesday 21 February 2017 (issued every 10 minutes, with the page automatically refreshed every 10 minutes)

About coastal observations | Map of coastal stations | Coastal observations for QLD | Marine services | Other Formats
Station Details ID: 039059 Name: LADY ELLIOT ISLAND Lat: -24.11 Lon: 152.72 Height: 3.6 m
Data from the previous 72 hours. | See also: Recent months at Lady Elliot Island
Date/Time
EST
Temp
°C
Wind Pressure Rain since
9am
mm
Weather Cloud Vis
km
Sea
Height
m
Swell
Dir  Spd
kts
Gust
kts
hPa Trend Height
m
Period
s
Dir
21/08:00am 27.5 E 9 11 1014.6 - 0.0 - - - - - - -
21/07:30am 27.6 SSE 7 11 1014.3 - 0.0 - - - - - - -
21/07:00am 26.4 S 7 10 1013.9 - 0.0 - - - - - - -
21/06:30am 25.6 S 8 13 1013.5 - 0.0 - - - - - - -
21/06:00am 24.6 CALM 0 0 1013.0 - 0.0 - - - - - - -
21/05:30am 24.2 CALM 0 0 1012.7 - 0.0 - - - - - - -
21/05:00am 24.5 CALM 0 0 1012.4 - 0.0 - - - - - - -
21/04:30am 24.4 CALM 0 0 1012.0 - 0.0 - - - - - - -
21/04:00am 25.2 SE 3 4 1011.8 - 0.0 - - - - - - -
21/03:30am 25.7 SE 3 5 1011.6 - 0.0 - - - - - - -
21/03:00am 25.9 SE 4 5 1011.5 - 0.0 - - - - - - -
21/02:30am 26.1 SE 4 6 1011.5 - 0.0 - - - - - - -
21/02:00am 25.9 SE 3 6 1011.6 - 0.0 - - - - - - -
21/01:30am 25.7 SSE 3 5 1011.9 - 0.0 - - - - - - -
21/01:00am 24.3 CALM 0 0 1012.3 - 0.0 - - - - - - -
21/12:30am 24.6 CALM 0 0 1012.6 - 0.0 - - - - - - -
21/12:00am 25.5 CALM 0 0 1012.4 - 0.0 - - - - - - -
 
Date/Time
EST
Temp
°C
Wind Pressure Rain since
9am
mm
Weather Cloud Vis
km
Sea
Height
m
Swell
Dir  Spd
kts
Gust
kts
hPa Trend Height
m
Period
s
Dir
20/11:30pm 26.3 ESE 5 6 1012.4 - 0.0 - - - - - - -
20/11:00pm 26.3 E 4 5 1012.5 - 0.0 - - - - - - -
20/10:30pm 26.6 E 4 6 1012.5 - 0.0 - - - - - - -
20/10:00pm 26.6 E 5 6 1012.6 - 0.0 - - - - - - -
20/09:30pm 26.8 E 5 6 1012.5 - 0.0 - - - - - - -
20/09:00pm 26.9 ENE 5 7 1012.3 - 0.0 - - - - - - -
20/08:30pm 27.0 ENE 7 9 1011.9 - 0.0 - - - - - - -
20/08:00pm 27.2 E 7 10 1011.7 - 0.0 - - - - - - -
20/07:30pm 27.2 E 7 8 1011.3 - 0.0 - - - - - - -
20/07:00pm 27.3 E 6 7 1010.9 - 0.0 - - - - - - -
20/06:30pm 27.5 ENE 4 6 1010.5 - 0.0 - - - - - - -
20/06:00pm 28.1 ENE 5 8 1010.2 - 0.0 - - - - - - -
20/05:30pm 28.7 ENE 6 8 1009.7 - 0.0 - - - - - - -
20/05:00pm 28.9 ENE 6 8 1009.2 - 0.0 - - - - - - -
20/04:30pm 29.0 E 8 10 1009.0 - 0.0 - - - - - - -
20/04:00pm 29.2 E 7 9 1008.8 - 0.0 - - - - - - -
20/03:30pm 29.3 E 6 7 1008.9 - 0.0 - - - - - - -
20/03:00pm 29.9 E 5 7 1009.0 - 0.0 - - - - - - -
20/02:30pm 29.6 ESE 5 7 1009.2 - 0.0 - - - - - - -
20/02:00pm 29.7 SSE 5 8 1009.4 - 0.0 - - - - - - -
20/01:30pm 29.7 SSE 5 8 1009.6 - 0.0 - - - - - - -
20/01:00pm 29.7 S 7 8 1009.9 - 0.0 - - - - - - -
20/12:30pm 28.9 S 6 8 1010.2 - 0.0 - - - - - - -
20/12:00pm 28.2 S 5 6 1010.3 - 0.0 - - - - - - -
20/11:30am 28.3 S 6 8 1010.5 - 0.0 - - - - - - -
20/11:00am 28.9 S 5 7 1010.7 - 0.0 - - - - - - -
20/10:30am 28.5 SSE 6 8 1010.9 - 0.0 - - - - - - -
20/10:00am 28.1 S 6 8 1010.9 - 0.0 - - - - - - -
20/09:30am 27.3 SSW 6 7 1011.0 - 0.0 - - - - - - -
20/09:00am 28.0 SSW 6 8 1011.1 - 0.0 - - - - - - -
20/08:30am 27.6 SSE 5 7 1011.0 - 0.0 - - - - - - -
20/08:00am 26.9 SSE 4 6 1010.8 - 0.0 - - - - - - -
20/07:30am 26.6 SSE 3 4 1010.6 - 0.0 - - - - - - -
20/07:00am 25.9 SSE 3 5 1010.1 - 0.0 - - - - - - -
20/06:30am 25.5 SSW 5 7 1009.8 - 0.0 - - - - - - -
20/06:00am 25.0 SSW 5 8 1009.4 - 0.0 - - - - - - -
20/05:30am 24.8 SSW 6 9 1009.0 - 0.0 - - - - - - -
20/05:00am 24.8 SSW 9 14 1008.9 - 0.0 - - - - - - -
20/04:30am 27.4 NW 6 11 1008.4 - 0.0 - - - - - - -
20/04:00am 27.2 NW 7 11 1008.2 - 0.0 - - - - - - -
20/03:30am 27.2 NNW 7 11 1007.9 - 0.0 - - - - - - -
20/03:00am 27.3 NNW 7 11 1008.1 - 0.0 - - - - - - -
20/02:30am 27.2 NNW 8 11 1008.2 - 0.0 - - - - - - -
20/02:00am 27.3 NNW 8 12 1008.4 - 0.0 - - - - - - -
20/01:30am 27.4 NNW 9 13 1008.6 - 0.0 - - - - - - -
20/01:00am 27.4 NNW 9 12 1008.6 - 0.0 - - - - - - -
20/12:30am 27.3 NNW 8 12 1008.8 - 0.0 - - - - - - -
20/12:00am 27.4 NNW 8 12 1009.1 - 0.0 - - - - - - -
 
Date/Time
EST
Temp
°C
Wind Pressure Rain since
9am
mm
Weather Cloud Vis
km
Sea
Height
m
Swell
Dir  Spd
kts
Gust
kts
hPa Trend Height
m
Period
s
Dir
19/11:30pm 27.4 NNW 8 13 1009.4 - 0.0 - - - - - - -
19/11:00pm 27.4 NNW 7 10 1009.5 - 0.0 - - - - - - -
19/10:30pm 27.4 NNW 7 12 1009.7 - 0.0 - - - - - - -
19/10:00pm 27.4 NNW 9 12 1009.4 - 0.0 - - - - - - -
19/09:30pm 27.3 NNW 9 12 1009.4 - 0.0 - - - - - - -
19/09:00pm 27.4 NNW 8 11 1009.3 - 0.0 - - - - - - -
19/08:30pm 27.3 NNW 9 13 1009.0 - 0.0 - - - - - - -
19/08:00pm 27.3 N 12 15 1008.7 - 0.0 - - - - - - -
19/07:30pm 27.2 N 13 16 1008.3 - 0.0 - - - - - - -
19/07:00pm 27.2 N 13 15 1007.8 - 0.0 - - - - - - -
19/06:30pm 27.3 NNW 11 14 1007.6 - 0.0 - - - - - - -
19/06:00pm 27.6 NNW 10 15 1007.4 - 0.0 - - - - - - -
19/05:30pm 28.0 NNW 10 13 1006.8 - 0.0 - - - - - - -
19/05:00pm 28.1 NNW 9 13 1006.4 - 0.0 - - - - - - -
19/04:30pm 28.4 NNW 8 12 1006.5 - 0.0 - - - - - - -
19/04:00pm 29.4 NNW 8 12 1006.8 - 0.0 - - - - - - -
19/03:30pm 29.5 NW 9 12 1007.1 - 0.0 - - - - - - -
19/03:00pm 30.0 NW 9 12 1007.3 - 0.0 - - - - - - -
19/02:30pm 30.2 NNW 8 11 1007.4 - 0.0 - - - - - - -
19/02:00pm 30.2 NNW 9 12 1007.7 - 0.0 - - - - - - -
19/01:30pm 29.8 NNW 11 14 1008.0 - 0.0 - - - - - - -
19/01:00pm 30.9 N 11 13 1008.1 - 0.0 - - - - - - -
19/12:30pm 30.4 N 10 14 1008.2 - 0.0 - - - - - - -
19/12:00pm 30.7 N 7 12 1008.4 - 0.0 - - - - - - -
19/11:30am 30.3 NNE 7 11 1008.7 - 0.0 - - - - - - -
19/11:00am 30.8 NNE 7 11 1009.0 - 0.0 - - - - - - -
19/10:30am 30.1 N 7 10 1009.4 - 0.0 - - - - - - -
19/10:00am 29.5 N 7 9 1009.6 - 0.0 - - - - - - -
19/09:30am 29.9 N 6 8 1009.7 - 0.0 - - - - - - -
19/09:00am 28.9 N 6 7 1009.8 - 0.0 - - - - - - -
19/08:30am 29.0 N 5 7 1009.9 - 0.0 - - - - - - -
19/08:00am 28.4 N 5 7 1009.8 - 0.0 - - - - - - -
19/07:30am 27.9 N 4 6 1009.6 - 0.0 - - - - - - -
19/07:00am 27.5 N 4 6 1009.5 - 0.0 - - - - - - -
19/06:30am 26.4 N 4 6 1009.7 - 0.0 - - - - - - -
19/06:00am 26.1 N 4 6 1009.5 - 0.0 - - - - - - -
19/05:30am 25.8 N 5 7 1009.5 - 0.0 - - - - - - -
19/05:00am 26.0 WNW 6 10 1009.8 - 0.0 - - - - - - -
19/04:30am 26.1 WNW 7 10 1009.8 - 0.0 - - - - - - -
19/04:00am 26.0 NW 6 9 1009.7 - 0.0 - - - - - - -
19/03:30am 26.1 NW 6 9 1009.7 - 0.0 - - - - - - -
19/03:00am 26.1 NW 6 10 1009.7 - 0.0 - - - - - - -
19/02:30am 26.1 NW 5 8 1009.3 - 0.0 - - - - - - -
19/02:00am 26.2 NNW 7 10 1009.4 - 0.0 - - - - - - -
19/01:30am 26.4 NNW 7 11 1009.5 - 0.0 - - - - - - -
19/01:00am 26.5 NNW 8 12 1009.7 - 0.0 - - - - - - -
19/12:30am 26.5 NNW 11 14 1009.7 - 0.0 - - - - - - -
19/12:00am 26.5 N 9 14 1009.7 - 0.0 - - - - - - -
 
Date/Time
EST
Temp
°C
Wind Pressure Rain since
9am
mm
Weather Cloud Vis
km
Sea
Height
m
Swell
Dir  Spd
kts
Gust
kts
hPa Trend Height
m
Period
s
Dir
18/11:30pm 26.4 N 9 13 1009.9 - 0.0 - - - - - - -
18/11:00pm 26.3 N 7 12 1010.1 - 0.0 - - - - - - -
18/10:30pm 26.4 N 6 10 1010.1 - 0.0 - - - - - - -
18/10:00pm 26.3 NNE 7 12 1010.1 - 0.0 - - - - - - -
18/09:30pm 26.2 NNE 7 11 1009.9 - 0.0 - - - - - - -
18/09:00pm 26.1 NNE 7 11 1009.6 - 0.0 - - - - - - -
18/08:30pm 26.1 NNE 6 10 1009.6 - 0.0 - - - - - - -
18/08:00pm 26.1 NNE 6 10 1009.4 - 0.0 - - - - - - -
18/07:30pm 26.2 NNE 6 9 1009.4 - 0.0 - - - - - - -
18/07:00pm 26.4 NE 5 8 1009.2 - 0.0 - - - - - - -
18/06:30pm 26.5 NNE 5 8 1009.1 - 0.0 - - - - - - -
18/06:00pm 27.0 NE 5 8 1009.2 - 0.0 - - - - - - -
18/05:30pm 27.8 NE 5 6 1009.0 - 0.0 - - - - - - -
18/05:00pm 28.3 NNE 5 7 1009.1 - 0.0 - - - - - - -
18/04:30pm 28.3 NNE 5 7 1009.4 - 0.0 - - - - - - -
18/04:00pm 28.5 NE 4 6 1009.6 - 0.0 - - - - - - -
18/03:30pm 28.8 N 5 7 1009.7 - 0.0 - - - - - - -
18/03:00pm 29.1 N 5 7 1009.9 - 0.0 - - - - - - -
18/02:30pm 29.2 NNW 5 7 1010.2 - 0.0 - - - - - - -
18/02:00pm 28.9 N 6 7 1010.4 - 0.0 - - - - - - -
18/01:30pm 29.8 NNE 4 6 1010.8 - 0.0 - - - - - - -
18/01:00pm 29.5 N 5 7 1011.2 - 0.0 - - - - - - -
18/12:30pm 28.9 NNE 5 7 1011.5 - 0.0 - - - - - - -
18/12:00pm 29.3 NNE 5 7 1011.8 - 0.0 - - - - - - -
18/11:30am 29.7 NE 5 7 1012.2 - 0.0 - - - - - - -
18/11:00am 29.1 ENE 5 6 1012.3 - 0.0 - - - - - - -
18/10:30am 28.6 ENE 4 6 1012.7 - 0.0 - - - - - - -
18/10:00am 28.9 ENE 5 7 1013.1 - 0.0 - - - - - - -
18/09:30am 28.7 E 5 7 1013.2 - 0.0 - - - - - - -
18/09:00am 28.4 SE 5 7 1013.6 - 0.0 - - - - - - -
18/08:30am 28.0 E 5 6 1013.6 - 0.0 - - - - - - -

Other Formats:

Comma delimited format used in spreadsheet applications
http://www.bom.gov.au/fwo/IDQ60701/IDQ60701.94388.axf

JavaScript Object Notation format (JSON) in row-major order
http://www.bom.gov.au/fwo/IDQ60701/IDQ60701.94388.json